Mc Lemoresville, Tennessee
Current Conditions -  °F | °C
As of 7:35 PM on Sunday 23 Nov 2014 (Local Time) from KPHT Reporting Station
Overcast Overcast  
Wind Chill: 57°   Ceiling: 1100
Heat Index: 57°   Visibility: 10mi
Dew Point: 57°   Wind: 21mph
Humidity: 100%   Direction: 240°WSW
Pressure: 29.37"   Gusts: NA
Location:  35.9867°N, 88.5772°W
Report Text: KPHT 240135Z AUTO 24018KT 10SM BKN011 OVC014 14/14 A2937 RMK
Loading
Personal Weather Stations






























Interactive Weather Map New forecast layout! Learn more

10-Day Weather Forecast

Advertisements
Track Severe Weather on mobile